Time;durP1;ratioP1;P1;durP2;ratioP2;P2;SDS_P1;SDS_P2;PMS_P1;PMS_P2;Temp;Humidity;BMP_temperature;BMP_pressure;BME280_temperature;BME280_humidity;BME280_pressure;Samples;Min_cycle;Max_cycle;Signal;HPM_P1;HPM_P2
2022/05/05 00:01:40;;;;;;;18.15;8.80;;;;;;;11.19;59.66;100764.42;1628983;86;21495;-69
2022/05/05 00:04:06;;;;;;;19.00;9.40;;;;;;;11.18;59.62;100762.78;1625338;86;21169;-69
2022/05/05 00:06:32;;;;;;;17.35;9.73;;;;;;;11.15;59.57;100763.11;1619208;88;21053;-69
2022/05/05 00:08:58;;;;;;;16.07;9.38;;;;;;;11.12;59.53;100769.28;1625593;88;21026;-69
2022/05/05 00:14:24;;;;;;;14.50;9.30;;;;;;;11.04;59.49;100764.76;1652235;86;21035;-69
2022/05/05 00:16:54;;;;;;;15.58;8.68;;;;;;;10.96;59.50;100765.58;1651036;85;21079;-70
2022/05/05 00:19:20;;;;;;;17.12;9.43;;;;;;;10.88;59.53;100762.03;1651069;86;21067;-69
2022/05/05 00:21:46;;;;;;;16.52;9.20;;;;;;;10.81;59.58;100765.02;1651264;86;20946;-70
2022/05/05 00:24:12;;;;;;;13.45;8.95;;;;;;;10.76;59.60;100768.69;1651877;85;20907;-69
2022/05/05 00:26:38;;;;;;;14.55;9.55;;;;;;;10.69;59.64;100767.17;1652079;86;21034;-69
2022/05/05 00:29:05;;;;;;;13.62;9.25;;;;;;;10.65;59.71;100764.98;1651997;86;21090;-70
2022/05/05 00:31:31;;;;;;;17.00;9.15;;;;;;;10.61;59.73;100766.29;1630632;86;21061;-70
2022/05/05 00:33:57;;;;;;;16.25;9.88;;;;;;;10.60;59.84;100761.95;1624093;87;21500;-69
2022/05/05 00:36:23;;;;;;;14.28;8.98;;;;;;;10.63;59.83;100761.62;1623855;87;21685;-70
2022/05/05 00:38:49;;;;;;;12.20;8.88;;;;;;;10.66;59.85;100755.98;1624996;86;21571;-70
2022/05/05 00:41:15;;;;;;;13.38;8.85;;;;;;;10.72;59.88;100754.00;1625122;88;21534;-69
2022/05/05 00:43:41;;;;;;;19.52;10.58;;;;;;;10.75;59.90;100757.17;1625445;88;20930;-69
2022/05/05 00:46:07;;;;;;;17.17;9.38;;;;;;;10.79;59.94;100756.35;1625664;87;20963;-69
2022/05/05 00:48:33;;;;;;;12.47;8.90;;;;;;;10.85;59.94;100753.03;1632098;86;21022;-69
2022/05/05 00:50:59;;;;;;;18.87;9.93;;;;;;;10.86;59.93;100754.70;1651701;86;21093;-69
2022/05/05 00:53:25;;;;;;;14.75;9.38;;;;;;;10.86;59.93;100749.37;1651971;86;22509;-69
2022/05/05 00:55:55;;;;;;;18.12;8.80;;;;;;;10.84;59.95;100754.02;1626493;86;21038;-69
2022/05/05 00:58:23;;;;;;;14.85;9.20;;;;;;;10.87;60.00;100748.38;1627974;86;21068;-69
2022/05/05 01:00:49;;;;;;;14.75;9.48;;;;;;;10.96;59.99;100752.72;1652066;86;21093;-70
2022/05/05 01:03:15;;;;;;;18.73;10.10;;;;;;;10.95;59.96;100751.05;1652189;85;21511;-70
2022/05/05 01:05:41;;;;;;;15.65;8.98;;;;;;;10.94;59.97;100748.87;1652078;86;21659;-70
2022/05/05 01:08:08;;;;;;;16.25;9.73;;;;;;;10.96;59.98;100750.05;1651198;86;21649;-69
2022/05/05 01:10:34;;;;;;;15.18;9.23;;;;;;;11.00;60.00;100746.06;1627443;86;21542;-70
2022/05/05 01:13:03;;;;;;;20.95;10.15;;;;;;;11.05;60.00;100741.05;1625491;88;21604;-70
2022/05/05 01:15:30;;;;;;;22.70;9.25;;;;;;;11.08;59.97;100747.42;1625787;87;21542;-70
2022/05/05 01:17:56;;;;;;;17.92;9.08;;;;;;;11.10;59.96;100746.75;1626383;86;21163;-69
2022/05/05 01:20:23;;;;;;;15.88;8.90;;;;;;;11.09;59.93;100739.73;1623719;88;21076;-69
2022/05/05 01:22:51;;;;;;;18.85;9.90;;;;;;;11.07;59.92;100739.56;1623893;88;21026;-70
2022/05/05 01:28:11;;;;;;;18.70;11.90;;;;;;;11.08;59.93;100743.42;1625470;86;21086;-69
2022/05/05 01:30:46;;;;;;;19.65;10.38;;;;;;;11.04;59.88;100742.08;1625120;86;21195;-69
2022/05/05 01:33:21;;;;;;;21.60;11.33;;;;;;;10.97;59.91;100745.06;1624198;88;21066;-69
2022/05/05 01:35:52;;;;;;;17.05;10.48;;;;;;;10.93;59.93;100745.05;1624128;88;21571;-69
2022/05/05 01:38:20;;;;;;;17.35;10.38;;;;;;;10.85;59.93;100745.86;1625660;86;21010;-69
2022/05/05 01:40:46;;;;;;;14.28;9.88;;;;;;;10.77;59.96;100754.33;1625456;88;21067;-69
2022/05/05 01:43:14;;;;;;;16.23;10.08;;;;;;;10.73;59.98;100743.67;1625352;88;21838;-69
2022/05/05 01:45:40;;;;;;;19.73;10.60;;;;;;;10.68;60.02;100748.64;1628352;86;21054;-69
2022/05/05 01:48:07;;;;;;;16.90;10.20;;;;;;;10.60;60.06;100748.12;1651978;86;20930;-69
2022/05/05 01:50:33;;;;;;;16.35;10.60;;;;;;;10.56;60.11;100748.59;1652045;86;21015;-69
2022/05/05 01:53:00;;;;;;;21.07;10.85;;;;;;;10.47;60.15;100745.91;1652267;85;21062;-69
2022/05/05 01:55:30;;;;;;;16.80;10.60;;;;;;;10.43;60.20;100743.23;1651771;86;21126;-69
2022/05/05 01:57:56;;;;;;;;;;;;;;;10.41;60.26;100749.20;1654428;86;21010;-69
2022/05/05 02:00:22;;;;;;;16.87;10.90;;;;;;;10.39;60.34;100743.70;1652247;86;20166;-69
2022/05/05 02:02:48;;;;;;;15.50;10.25;;;;;;;10.37;60.37;100744.38;1652269;86;21063;-69
2022/05/05 02:05:14;;;;;;;19.92;12.82;;;;;;;10.37;60.42;100746.55;1652235;86;21002;-69
2022/05/05 02:07:41;;;;;;;18.65;11.48;;;;;;;10.34;60.44;100744.20;1628491;86;21168;-69
2022/05/05 02:10:09;;;;;;;18.02;11.65;;;;;;;10.31;60.48;100748.49;1625435;88;21487;-69
2022/05/05 02:12:38;;;;;;;18.42;10.68;;;;;;;10.28;60.55;100754.14;1624942;86;21050;-69
2022/05/05 02:15:08;;;;;;;17.30;10.38;;;;;;;10.25;60.65;100757.62;1624440;88;21039;-69
2022/05/05 02:17:37;;;;;;;23.73;10.78;;;;;;;10.20;60.71;100759.45;1647254;86;21042;-70
2022/05/05 02:20:05;;;;;;;21.25;11.30;;;;;;;10.16;60.77;100758.09;1651919;86;21192;-69
2022/05/05 02:22:31;;;;;;;17.17;10.78;;;;;;;10.16;60.86;100754.10;1652064;86;21081;-69
2022/05/05 02:24:57;;;;;;;17.55;10.90;;;;;;;10.13;60.95;100750.39;1652017;86;21017;-69
2022/05/05 02:27:23;;;;;;;20.37;11.22;;;;;;;10.09;61.02;100752.19;1633247;86;21025;-69
2022/05/05 02:29:50;;;;;;;20.60;11.53;;;;;;;10.06;61.10;100749.36;1625453;88;21078;-70
2022/05/05 02:32:16;;;;;;;18.23;12.15;;;;;;;10.03;61.14;100748.31;1625581;88;21175;-70
2022/05/05 02:34:43;;;;;;;17.77;11.57;;;;;;;9.99;61.23;100742.46;1625176;88;21042;-69
2022/05/05 02:39:53;;;;;;;20.17;12.15;;;;;;;9.95;61.36;100742.95;1652183;85;21062;-69
2022/05/05 02:42:20;;;;;;;22.90;13.88;;;;;;;9.92;61.42;100743.27;1652310;86;20908;-69
2022/05/05 02:44:46;;;;;;;22.00;12.50;;;;;;;9.90;61.48;100738.58;1651917;86;21153;-69
2022/05/05 02:47:12;;;;;;;23.92;14.13;;;;;;;9.89;61.55;100732.91;1651972;86;21073;-69
2022/05/05 02:49:38;;;;;;;22.32;13.55;;;;;;;9.89;61.65;100736.90;1651901;86;21027;-69
2022/05/05 02:52:08;;;;;;;20.40;12.10;;;;;;;9.86;61.68;100738.55;1651975;86;21027;-69
2022/05/05 02:54:53;;;;;;;21.52;12.28;;;;;;;9.85;61.78;100742.23;1651893;86;21074;-69
2022/05/05 02:57:20;;;;;;;21.42;12.30;;;;;;;9.86;61.83;100741.22;1652056;85;22121;-69
2022/05/05 02:59:50;;;;;;;20.95;13.65;;;;;;;9.84;61.91;100741.87;1652076;86;21078;-69
2022/05/05 03:02:17;;;;;;;20.43;12.47;;;;;;;9.81;61.97;100735.05;1652266;86;21019;-70
2022/05/05 03:04:43;;;;;;;22.77;13.62;;;;;;;9.72;62.07;100724.48;1644784;86;21535;-69
2022/05/05 03:07:09;;;;;;;21.33;13.32;;;;;;;9.79;62.12;100742.83;1624107;88;21622;-69
2022/05/05 03:09:35;;;;;;;21.33;13.13;;;;;;;9.79;62.24;100744.16;1623827;88;21518;-69
2022/05/05 03:12:02;;;;;;;25.50;13.32;;;;;;;9.78;62.29;100742.52;1623965;88;21527;-69
2022/05/05 03:14:28;;;;;;;24.50;13.32;;;;;;;9.75;62.37;100739.64;1632605;86;21033;-69
2022/05/05 03:16:54;;;;;;;20.20;12.28;;;;;;;9.71;62.43;100736.14;1652278;86;21025;-69
2022/05/05 03:19:20;;;;;;;23.67;14.13;;;;;;;9.66;62.52;100737.09;1652170;86;20999;-69
2022/05/05 03:21:46;;;;;;;24.47;13.13;;;;;;;9.59;62.61;100737.38;1651878;86;21399;-69
2022/05/05 03:24:12;;;;;;;21.97;13.98;;;;;;;9.52;62.71;100741.16;1647573;85;20914;-69
2022/05/05 03:26:38;;;;;;;22.70;13.65;;;;;;;9.30;62.71;100723.00;1624022;88;20992;-69
2022/05/05 03:29:08;;;;;;;20.65;13.78;;;;;;;9.30;62.71;100723.00;1624165;88;21075;-69
2022/05/05 03:31:32;;;;;;;25.85;13.28;;;;;;;9.36;62.95;100744.50;1623630;88;21090;-69
2022/05/05 03:33:59;;;;;;;25.92;14.18;;;;;;;9.32;63.07;100741.80;1625961;86;21149;-69
2022/05/05 03:36:25;;;;;;;27.05;14.73;;;;;;;9.27;63.15;100738.78;1651934;86;21058;-69
2022/05/05 03:38:51;;;;;;;25.05;14.07;;;;;;;9.23;63.26;100738.75;1651951;86;21082;-69
2022/05/05 03:41:17;;;;;;;25.15;13.62;;;;;;;9.18;63.34;100740.20;1652190;86;21510;-69
2022/05/05 03:43:43;;;;;;;24.25;14.23;;;;;;;9.17;63.48;100735.37;1651521;86;21527;-69
2022/05/05 03:46:09;;;;;;;26.17;14.25;;;;;;;9.17;63.60;100739.36;1652238;86;22129;-69
2022/05/05 03:48:35;;;;;;;19.42;13.55;;;;;;;9.19;63.72;100745.84;1652048;86;21644;-69
2022/05/05 03:51:01;;;;;;;23.20;14.05;;;;;;;9.22;63.82;100746.90;1652062;86;21030;-69
2022/05/05 03:53:27;;;;;;;35.35;20.32;;;;;;;9.26;63.91;100751.74;1638450;85;21541;-69
2022/05/05 03:55:53;;;;;;;26.42;18.98;;;;;;;9.27;63.96;100745.44;1625391;87;21566;-69
2022/05/05 03:58:19;;;;;;;27.67;17.65;;;;;;;9.34;64.08;100755.81;1627804;86;22148;-70
2022/05/05 04:00:49;;;;;;;28.38;17.92;;;;;;;9.47;64.19;100756.73;1625332;88;21064;-69
2022/05/05 04:03:31;;;;;;;33.35;20.57;;;;;;;9.71;64.36;100758.78;1626193;86;21042;-69
2022/05/05 04:06:06;;;;;;;40.85;25.40;;;;;;;10.35;64.60;100759.18;1625277;87;21075;-70
2022/05/05 04:08:33;;;;;;;26.77;16.45;;;;;;;11.10;64.48;100760.09;1625486;88;21101;-70
2022/05/05 04:10:59;;;;;;;24.12;14.58;;;;;;;11.85;64.25;100759.47;1625187;88;21158;-70
2022/05/05 04:13:25;;;;;;;22.87;14.15;;;;;;;12.45;63.98;100760.62;1638519;86;21022;-70
2022/05/05 04:15:51;;;;;;;19.60;13.62;;;;;;;12.93;63.75;100760.91;1652196;86;21089;-70
2022/05/05 04:18:17;;;;;;;21.97;12.33;;;;;;;13.30;63.31;100759.37;1651949;86;21504;-70
2022/05/05 04:20:44;;;;;;;26.02;14.55;;;;;;;13.79;63.00;100763.83;1652102;86;21120;-70
2022/05/05 04:23:10;;;;;;;29.48;13.85;;;;;;;14.12;62.65;100761.12;1651782;86;21519;-70
2022/05/05 04:25:41;;;;;;;23.85;13.60;;;;;;;14.64;62.34;100766.41;1652011;86;21491;-70
2022/05/05 04:28:08;;;;;;;19.30;13.10;;;;;;;15.04;61.81;100767.73;1652118;86;21018;-70
2022/05/05 04:30:35;;;;;;;26.82;14.33;;;;;;;15.26;61.26;100765.39;1651728;86;21042;-70
2022/05/05 04:33:01;;;;;;;24.52;12.43;;;;;;;15.76;60.76;100770.33;1646554;86;21082;-70
2022/05/05 04:35:26;;;;;;;22.02;11.80;;;;;;;16.39;60.06;100770.67;1625311;88;21164;-70
2022/05/05 04:37:52;;;;;;;17.07;11.60;;;;;;;16.84;59.44;100775.98;1625155;87;21082;-70
2022/05/05 04:40:19;;;;;;;18.07;12.65;;;;;;;17.17;58.71;100774.21;1625466;88;21030;-70
2022/05/05 04:42:45;;;;;;;21.27;13.55;;;;;;;17.57;58.04;100779.72;1629208;86;21022;-70
2022/05/05 04:45:11;;;;;;;24.10;13.72;;;;;;;17.81;57.30;100779.09;1652164;86;20915;-70
2022/05/05 04:47:37;;;;;;;17.07;12.47;;;;;;;17.82;56.63;100784.30;1632578;86;21491;-70
2022/05/05 04:50:06;;;;;;;18.42;11.60;;;;;;;17.64;55.66;100780.55;1625649;86;21526;-70
2022/05/05 04:52:32;;;;;;;23.77;12.50;;;;;;;17.15;55.01;100788.42;1625565;87;21549;-70
2022/05/05 04:54:59;;;;;;;18.20;12.82;;;;;;;16.31;54.83;100789.16;1625480;88;21078;-70
2022/05/05 04:57:25;;;;;;;18.90;12.43;;;;;;;15.77;55.10;100793.48;1642632;86;21029;-70
2022/05/05 04:59:52;;;;;;;26.75;13.55;;;;;;;15.53;55.14;100787.17;1652263;86;21148;-70
2022/05/05 05:02:18;;;;;;;20.05;12.40;;;;;;;15.41;55.32;100788.98;1652089;86;21058;-70
2022/05/05 05:04:44;;;;;;;20.23;11.78;;;;;;;15.25;55.21;100782.53;1651484;86;21038;-70
2022/05/05 05:07:10;;;;;;;18.73;12.70;;;;;;;15.39;55.25;100785.67;1652365;86;21539;-70
2022/05/05 05:09:36;;;;;;;23.38;13.85;;;;;;;15.54;55.12;100784.30;1652284;86;21062;-70
2022/05/05 05:12:03;;;;;;;14.90;11.95;;;;;;;15.89;54.98;100778.50;1652312;86;21145;-71
2022/05/05 05:14:29;;;;;;;24.15;12.85;;;;;;;15.95;54.77;100777.70;1651658;86;21022;-70
2022/05/05 05:16:55;;;;;;;19.23;12.50;;;;;;;15.71;54.70;100778.14;1652183;86;20938;-70
2022/05/05 05:19:21;;;;;;;20.65;12.07;;;;;;;15.64;54.58;100777.25;1651712;86;21025;-71
2022/05/05 05:21:47;;;;;;;20.50;12.37;;;;;;;15.60;54.49;100774.11;1651887;86;21030;-70
2022/05/05 05:24:13;;;;;;;20.95;13.00;;;;;;;15.71;54.40;100764.19;1638155;86;21986;-72
2022/05/05 05:26:40;;;;;;;19.05;13.00;;;;;;;15.92;54.37;100771.38;1625947;86;21026;-71
2022/05/05 05:29:06;;;;;;;24.10;12.00;;;;;;;16.09;54.25;100764.67;1625600;87;21553;-70
2022/05/05 05:31:32;;;;;;;20.88;12.80;;;;;;;16.24;54.03;100768.60;1632859;86;21513;-71
2022/05/05 05:33:59;;;;;;;17.95;11.83;;;;;;;16.49;53.95;100773.31;1636697;86;21589;-70
2022/05/05 05:36:28;;;;;;;22.85;12.43;;;;;;;16.85;53.77;100772.27;1633722;86;21345;-71
2022/05/05 05:38:53;;;;;;;17.42;12.37;;;;;;;16.85;53.41;100768.23;1656322;86;21100;-71
2022/05/05 05:41:19;;;;;;;59.90;18.82;;;;;;;16.81;53.23;100775.05;1636149;86;21029;-71
2022/05/05 05:43:45;;;;;;;23.75;13.20;;;;;;;16.91;53.08;100775.50;1626842;86;21073;-71
2022/05/05 05:46:11;;;;;;;28.55;13.38;;;;;;;17.09;52.94;100777.11;1626230;86;20994;-71
2022/05/05 05:48:38;;;;;;;23.18;13.13;;;;;;;17.44;52.74;100779.99;1656810;85;21130;-71
2022/05/05 05:51:06;;;;;;;29.15;14.47;;;;;;;17.78;52.56;100784.91;1645058;86;21637;-71
2022/05/05 05:53:32;;;;;;;21.45;12.70;;;;;;;17.99;52.34;100783.36;1635384;86;21029;-71
2022/05/05 05:55:58;;;;;;;22.80;12.05;;;;;;;18.14;52.08;100771.83;1640525;86;21566;-71
2022/05/05 05:58:24;;;;;;;19.17;12.37;;;;;;;18.36;51.84;100779.16;1631155;86;21510;-71
2022/05/05 06:00:50;;;;;;;16.48;11.33;;;;;;;18.51;51.56;100778.95;1644973;86;22330;-71
2022/05/05 06:06:01;;;;;;;15.95;11.80;;;;;;;18.39;50.97;100782.27;1636051;86;21033;-71
2022/05/05 06:08:27;;;;;;;22.87;13.03;;;;;;;18.60;50.92;100786.61;1645832;86;21137;-71
2022/05/05 06:10:53;;;;;;;20.88;12.43;;;;;;;18.85;50.76;100783.50;1630413;86;21098;-72
2022/05/05 06:13:19;;;;;;;18.00;10.90;;;;;;;19.21;50.50;100788.29;1647639;86;21054;-71
2022/05/05 06:15:45;;;;;;;16.62;10.72;;;;;;;19.47;50.24;100784.64;1646432;86;21082;-72
2022/05/05 06:18:11;;;;;;;18.05;11.55;;;;;;;19.59;50.06;100789.66;1628263;87;20974;-71
2022/05/05 06:20:37;;;;;;;23.42;11.25;;;;;;;19.88;49.80;100786.29;1630519;87;21090;-71
2022/05/05 06:23:03;;;;;;;17.82;10.03;;;;;;;19.94;49.47;100789.48;1629770;87;21054;-71
2022/05/05 06:25:29;;;;;;;19.62;10.48;;;;;;;20.10;49.24;100774.54;1611818;88;21241;-71
2022/05/05 06:27:59;;;;;;;24.87;11.80;;;;;;;20.32;48.89;100777.17;1631690;86;21143;-71
2022/05/05 06:30:25;;;;;;;18.48;11.18;;;;;;;20.42;48.61;100780.19;1650148;86;21050;-71
2022/05/05 06:32:51;;;;;;;18.77;10.35;;;;;;;20.51;48.32;100774.48;1652038;86;21041;-71
2022/05/05 06:35:17;;;;;;;14.55;9.80;;;;;;;20.52;47.93;100781.02;1652346;86;21051;-72
2022/05/05 06:37:43;;;;;;;18.62;11.12;;;;;;;20.38;47.63;100783.05;1652285;86;21149;-71
2022/05/05 06:40:10;;;;;;;18.27;11.12;;;;;;;20.31;47.27;100785.52;1650998;85;21538;-72
2022/05/05 06:42:36;;;;;;;12.80;10.00;;;;;;;20.12;46.85;100794.13;1633313;86;21110;-71
2022/05/05 06:45:02;;;;;;;17.27;10.78;;;;;;;20.16;46.65;100799.37;1625571;88;21082;-71
2022/05/05 06:47:29;;;;;;;13.60;9.40;;;;;;;20.14;46.30;100796.59;1605254;88;21042;-71
2022/05/05 06:49:55;;;;;;;12.30;10.43;;;;;;;20.44;46.16;100792.97;1628169;86;21510;-72
2022/05/05 06:52:21;;;;;;;16.52;10.18;;;;;;;20.74;45.93;100797.66;1634801;86;20981;-72
2022/05/05 06:54:47;;;;;;;15.43;9.50;;;;;;;21.02;45.62;100792.51;1650596;86;21046;-71
2022/05/05 06:57:13;;;;;;;15.35;9.33;;;;;;;21.27;45.45;100786.98;1645898;86;21042;-71
2022/05/05 06:59:39;;;;;;;13.95;9.25;;;;;;;21.39;45.16;100796.81;1621019;86;21053;-72
2022/05/05 07:02:06;;;;;;;14.73;8.70;;;;;;;21.41;45.01;100798.78;1649437;86;21164;-72
2022/05/05 07:07:17;;;;;;;18.87;9.23;;;;;;;21.58;44.42;100802.18;1626252;86;21042;-71
2022/05/05 07:12:29;;;;;;;11.53;9.38;;;;;;;21.41;43.87;100806.92;1648594;85;21066;-71
2022/05/05 07:14:55;;;;;;;13.58;9.55;;;;;;;21.73;43.75;100810.73;1641682;86;21189;-71
2022/05/05 07:17:23;;;;;;;16.17;8.70;;;;;;;22.08;43.61;100808.92;1658902;86;21071;-72
2022/05/05 07:19:49;;;;;;;15.50;9.93;;;;;;;22.25;43.39;100815.30;1625806;86;21570;-73
2022/05/05 07:22:15;;;;;;;14.63;8.10;;;;;;;22.33;43.20;100812.24;1630130;86;20979;-73
2022/05/05 07:24:41;;;;;;;10.75;8.28;;;;;;;22.38;43.01;100805.55;1624912;86;20950;-72
2022/05/05 07:27:07;;;;;;;12.90;8.70;;;;;;;22.41;42.76;100808.34;1630484;86;21443;-72
2022/05/05 07:29:33;;;;;;;10.72;7.58;;;;;;;22.46;42.61;100807.61;1655303;86;21069;-73
2022/05/05 07:31:59;;;;;;;13.83;8.68;;;;;;;22.55;42.38;100813.83;1639861;86;20947;-73
2022/05/05 07:34:25;;;;;;;13.30;8.28;;;;;;;22.77;42.22;100808.59;1625297;86;20895;-73
2022/05/05 07:36:51;;;;;;;14.68;7.85;;;;;;;22.95;42.07;100810.33;1625667;86;21042;-73
2022/05/05 07:39:17;;;;;;;10.78;7.12;;;;;;;23.15;41.86;100816.20;1634398;86;21648;-73
2022/05/05 07:41:43;;;;;;;9.83;7.10;;;;;;;23.17;41.45;100816.24;1640938;86;20939;-73
2022/05/05 07:44:09;;;;;;;9.45;7.05;;;;;;;23.22;41.14;100821.77;1635033;86;21065;-73
2022/05/05 07:46:35;;;;;;;14.18;7.40;;;;;;;23.24;40.83;100820.17;1636103;86;21031;-73
2022/05/05 07:49:04;;;;;;;13.10;7.55;;;;;;;23.32;40.62;100815.19;1637195;86;21039;-73
2022/05/05 07:51:31;;;;;;;11.97;8.25;;;;;;;23.25;40.23;100824.03;1640307;86;21650;-73
2022/05/05 07:56:43;;;;;;;11.70;7.53;;;;;;;22.87;39.73;100821.05;1640963;86;21052;-74
2022/05/05 07:59:09;;;;;;;15.72;8.75;;;;;;;22.91;39.68;100816.78;1642922;86;21032;-74
2022/05/05 08:01:36;;;;;;;10.65;7.80;;;;;;;23.08;39.64;100816.31;1635217;86;21041;-74
2022/05/05 08:04:04;;;;;;;11.45;7.55;;;;;;;23.35;39.64;100824.22;1638979;85;21700;-73
2022/05/05 08:06:31;;;;;;;12.45;7.10;;;;;;;23.48;39.45;100820.39;1629481;86;21029;-73
2022/05/05 08:08:58;;;;;;;12.43;7.03;;;;;;;23.48;39.25;100819.56;1629584;86;21480;-74
2022/05/05 08:11:24;;;;;;;10.53;7.80;;;;;;;23.52;39.10;100818.84;1627374;86;39138;-74
2022/05/05 08:13:52;;;;;;;10.03;6.58;;;;;;;23.49;38.88;100830.75;1643447;86;21042;-74
2022/05/05 08:16:18;;;;;;;9.30;6.25;;;;;;;23.50;38.86;100829.69;1632007;86;22544;-74
2022/05/05 08:18:44;;;;;;;9.13;6.35;;;;;;;23.51;38.67;100832.68;1626916;86;20999;-74
2022/05/05 08:21:11;;;;;;;11.95;6.53;;;;;;;23.43;38.41;100833.09;1607500;87;21050;-74
2022/05/05 08:23:37;;;;;;;9.73;5.97;;;;;;;23.38;38.26;100825.09;1624003;87;21029;-73
2022/05/05 08:28:48;;;;;;;11.22;7.20;;;;;;;23.23;37.71;100830.23;1622337;87;21490;-74
2022/05/05 08:31:14;;;;;;;11.15;7.87;;;;;;;22.85;37.52;100825.91;1626928;87;21068;-74
2022/05/05 08:33:40;;;;;;;12.00;7.37;;;;;;;23.01;37.63;100822.42;1629217;87;21116;-74
2022/05/05 08:36:07;;;;;;;10.23;6.03;;;;;;;22.86;37.31;100826.22;1625432;87;21045;-74
2022/05/05 08:38:33;;;;;;;13.45;5.90;;;;;;;22.79;37.23;100830.43;1625593;87;21034;-74
2022/05/05 08:41:00;;;;;;;8.60;6.30;;;;;;;22.54;36.83;100829.00;1601380;89;21662;-74
2022/05/05 08:43:26;;;;;;;12.45;6.08;;;;;;;22.70;36.95;100832.38;1632041;86;21171;-74
2022/05/05 08:45:55;;;;;;;11.75;5.80;;;;;;;22.72;36.79;100831.62;1646056;86;21616;-74
2022/05/05 08:48:21;;;;;;;13.43;7.17;;;;;;;22.71;36.69;100827.23;1640320;85;21145;-73
2022/05/05 08:50:58;;;;;;;7.03;5.15;;;;;;;22.60;36.57;100830.77;1637816;85;21024;-73
2022/05/05 08:53:27;;;;;;;9.55;5.95;;;;;;;22.75;36.58;100825.70;1656833;85;21632;-74
2022/05/05 08:55:53;;;;;;;9.60;6.07;;;;;;;22.90;36.57;100828.75;1643096;85;21569;-74
2022/05/05 08:58:19;;;;;;;8.18;5.28;;;;;;;23.14;36.61;100830.86;1657525;84;21531;-74
2022/05/05 09:00:45;;;;;;;8.20;5.40;;;;;;;23.25;36.59;100825.39;1654805;84;21564;-74
2022/05/05 09:03:11;;;;;;;10.20;5.92;;;;;;;23.34;36.50;100818.47;1646170;85;21440;-74
2022/05/05 09:05:48;;;;;;;10.90;5.65;;;;;;;23.53;36.45;100819.67;1641643;85;22673;-74
2022/05/05 09:08:28;;;;;;;16.12;6.90;;;;;;;23.55;36.36;100821.59;1656040;85;21040;-74
2022/05/05 09:11:03;;;;;;;9.35;6.87;;;;;;;23.33;36.10;100823.62;1652998;85;21067;-75
2022/05/05 09:13:32;;;;;;;9.95;6.35;;;;;;;23.43;36.30;100828.48;1643420;85;21108;-74
2022/05/05 09:15:58;;;;;;;9.87;5.63;;;;;;;23.47;36.10;100822.81;1646818;85;21043;-74
2022/05/05 09:18:28;;;;;;;11.45;6.03;;;;;;;23.38;35.97;100823.73;1647589;84;21665;-74
2022/05/05 09:20:54;;;;;;;7.72;6.35;;;;;;;23.32;35.99;100824.71;1650515;84;21057;-74
2022/05/05 09:23:37;;;;;;;9.18;5.95;;;;;;;23.38;35.98;100821.01;1646614;84;21018;-74
2022/05/05 09:26:10;;;;;;;8.45;6.45;;;;;;;23.42;35.96;100820.55;1636064;86;21025;-74
2022/05/05 09:28:36;;;;;;;9.50;6.83;;;;;;;23.51;36.00;100821.80;1649289;86;21033;-74
2022/05/05 09:31:09;;;;;;;10.48;6.67;;;;;;;23.55;36.02;100829.23;1650464;86;21686;-73
2022/05/05 09:33:41;;;;;;;8.58;6.95;;;;;;;23.54;36.08;100819.97;1657638;86;21068;-74
2022/05/05 09:36:16;;;;;;;10.95;6.87;;;;;;;23.70;36.24;100829.52;1657597;85;21063;-74
2022/05/05 09:39:03;;;;;;;11.63;7.12;;;;;;;23.77;36.27;100826.63;1657191;85;21014;-74
2022/05/05 09:41:34;;;;;;;12.88;7.47;;;;;;;23.61;36.42;100820.64;1655579;85;21552;-74
2022/05/05 09:44:12;;;;;;;21.73;7.25;;;;;;;23.60;36.63;100831.23;1651150;85;21761;-73
2022/05/05 09:46:38;;;;;;;10.38;6.72;;;;;;;23.59;36.54;100828.21;1647026;86;21043;-73
2022/05/05 09:49:12;;;;;;;12.88;7.25;;;;;;;23.65;36.65;100829.41;1651147;86;21492;-74
2022/05/05 09:51:43;;;;;;;9.55;7.00;;;;;;;23.93;36.70;100827.70;1650228;86;21049;-73
2022/05/05 09:59:49;;;;;;;10.72;6.08;;;;;;;23.82;36.45;100819.89;1651447;86;21013;-73
2022/05/05 10:04:00;;;;;;;13.58;6.37;;;;;;;23.89;36.54;100815.94;1649766;86;21007;-73
2022/05/05 10:04:49;;;;;;;7.03;6.22;;;;;;;23.94;36.50;100823.37;1646662;86;20920;-72
2022/05/05 10:07:17;;;;;;;10.35;6.40;;;;;;;23.83;36.36;100828.36;1651601;86;21073;-73
2022/05/05 10:09:43;;;;;;;8.70;6.85;;;;;;;23.68;36.25;100817.23;1643085;86;21532;-73
2022/05/05 10:12:09;;;;;;;8.90;5.47;;;;;;;23.59;36.29;100819.52;1632242;86;21059;-73
2022/05/05 10:14:35;;;;;;;11.12;6.22;;;;;;;23.53;36.24;100825.11;1637391;86;21058;-73
2022/05/05 10:17:02;;;;;;;9.83;6.15;;;;;;;23.63;36.05;100824.77;1630070;88;20920;-72
2022/05/05 10:19:28;;;;;;;9.53;6.92;;;;;;;23.70;35.87;100825.97;1618920;87;21025;-72
2022/05/05 10:22:08;;;;;;;7.40;6.62;;;;;;;23.81;35.93;100818.27;1619159;87;21860;-72
2022/05/05 10:24:58;;;;;;;7.20;5.33;;;;;;;23.98;35.90;100823.18;1627503;86;21031;-72
2022/05/05 10:27:24;;;;;;;7.95;6.30;;;;;;;24.07;35.80;100814.87;1642934;87;21045;-72
2022/05/05 10:29:50;;;;;;;6.65;5.62;;;;;;;24.03;35.61;100820.52;1643053;87;21044;-73
2022/05/05 10:32:24;;;;;;;6.67;5.70;;;;;;;23.96;35.50;100819.06;1640044;87;21079;-72
2022/05/05 10:35:21;;;;;;;7.83;5.55;;;;;;;24.19;35.55;100814.28;1636316;87;21829;-73
2022/05/05 10:37:47;;;;;;;5.67;5.03;;;;;;;24.48;35.41;100812.27;1628449;86;21039;-72
2022/05/05 10:40:14;;;;;;;10.75;6.70;;;;;;;24.62;35.20;100812.73;1655726;86;21042;-73
2022/05/05 10:42:45;;;;;;;6.83;5.65;;;;;;;24.52;34.90;100807.97;1653303;86;21110;-72
2022/05/05 10:45:31;;;;;;;8.63;5.72;;;;;;;24.45;34.78;100817.40;1622841;87;21049;-73
2022/05/05 10:48:06;;;;;;;10.48;5.92;;;;;;;24.45;34.60;100804.59;1638608;86;21677;-73
2022/05/05 10:50:52;;;;;;;6.22;5.62;;;;;;;24.12;34.51;100805.95;1615792;87;21049;-73
2022/05/05 10:53:37;;;;;;;7.45;4.92;;;;;;;23.74;34.38;100808.89;1605499;86;21122;-72
2022/05/05 10:56:30;;;;;;;7.65;5.58;;;;;;;23.36;34.35;100816.32;1621363;86;21025;-72
2022/05/05 10:59:07;;;;;;;10.90;5.53;;;;;;;23.13;34.48;100815.59;1638277;86;20939;-72
2022/05/05 11:01:48;;;;;;;7.30;5.05;;;;;;;23.07;34.66;100812.49;1626096;86;21382;-73
2022/05/05 11:04:23;;;;;;;5.90;4.78;;;;;;;23.07;34.72;100807.88;1631451;87;21094;-73
2022/05/05 11:07:18;;;;;;;7.25;5.85;;;;;;;23.43;34.89;100799.90;1642690;86;21112;-73
2022/05/05 11:09:44;;;;;;;8.20;5.33;;;;;;;23.86;34.92;100805.55;1644325;86;21025;-73
2022/05/05 11:12:18;;;;;;;6.92;5.87;;;;;;;23.97;34.65;100790.19;1638750;86;20932;-73
2022/05/05 11:23:49;;;;;;;10.25;5.90;;;;;;;23.99;34.80;100798.95;1653843;86;21114;-72
2022/05/05 11:26:17;;;;;;;10.38;5.92;;;;;;;23.66;34.55;100793.48;1627372;88;21038;-72
2022/05/05 11:28:43;;;;;;;8.33;5.60;;;;;;;23.48;34.63;100793.70;1629873;87;22233;-72
2022/05/05 11:31:30;;;;;;;6.17;5.25;;;;;;;23.48;34.83;100797.78;1624335;87;21068;-72
2022/05/05 11:34:00;;;;;;;9.05;6.37;;;;;;;23.40;35.02;100799.80;1630710;86;21044;-72
2022/05/05 11:36:33;;;;;;;8.73;6.78;;;;;;;23.27;35.34;100800.10;1634115;87;21158;-72
2022/05/05 11:38:59;;;;;;;9.10;5.92;;;;;;;23.26;35.45;100797.61;1630109;87;21074;-72
2022/05/05 11:41:26;;;;;;;21.85;7.30;;;;;;;23.42;35.56;100805.05;1624689;87;21608;-72
2022/05/05 11:46:38;;;;;;;11.50;6.62;;;;;;;23.24;35.97;100810.65;1620272;87;21093;-72
2022/05/05 11:49:04;;;;;;;8.53;6.15;;;;;;;22.93;36.36;100813.30;1634630;85;21077;-72
2022/05/05 11:51:32;;;;;;;26.07;7.33;;;;;;;22.73;36.79;100814.25;1621909;87;21074;-72
2022/05/05 11:54:14;;;;;;;10.85;6.05;;;;;;;22.64;37.07;100818.34;1621421;87;22456;-72
2022/05/05 11:56:47;;;;;;;14.20;6.87;;;;;;;22.48;37.26;100819.09;1639484;87;21022;-72
2022/05/05 12:02:10;;;;;;;15.83;6.37;;;;;;;22.28;37.77;100821.62;1638565;87;21127;-72
2022/05/05 12:04:55;;;;;;;6.67;5.42;;;;;;;22.15;38.04;100814.23;1621383;87;21101;-72